Time;durP1;ratioP1;P1;durP2;ratioP2;P2;SDS_P1;SDS_P2;PMS_P1;PMS_P2;Temp;Humidity;BMP_temperature;BMP_pressure;BME280_temperature;BME280_humidity;BME280_pressure;Samples;Min_cycle;Max_cycle;Signal;HPM_P1;HPM_P2
2021/09/09 00:02:22;;;;;;;1999.90;999.90;;;;;;;17.81;70.67;101114.19;15760126;28;20080;-61
2021/09/09 00:09:56;;;;;;;1999.90;999.90;;;;;;;17.67;71.03;101105.41;15794985;28;20098;-61
2021/09/09 00:17:30;;;;;;;1999.90;999.90;;;;;;;17.59;71.02;101109.28;15800936;28;20473;-62
2021/09/09 00:25:05;;;;;;;1999.90;999.90;;;;;;;17.51;71.41;101104.69;15798374;28;20048;-59
2021/09/09 00:32:39;;;;;;;1999.90;999.90;;;;;;;17.41;71.21;101089.16;15771281;28;20033;-61
2021/09/09 00:40:14;;;;;;;1999.90;999.90;;;;;;;17.26;71.77;101095.66;15761275;28;20068;-61
2021/09/09 00:47:47;;;;;;;1999.90;999.90;;;;;;;17.16;71.65;101087.78;15769110;28;20045;-60
2021/09/09 00:55:21;;;;;;;1999.90;999.90;;;;;;;17.06;71.84;101094.81;15774886;28;20044;-61
2021/09/09 01:02:53;;;;;;;1999.90;999.90;;;;;;;16.90;71.81;101089.25;15771723;28;20128;-61
2021/09/09 01:10:27;;;;;;;1999.90;999.90;;;;;;;16.78;72.07;101082.88;15802956;28;20047;-61
2021/09/09 01:17:59;;;;;;;1999.90;999.90;;;;;;;16.68;72.09;101087.09;15769027;28;20044;-60
2021/09/09 01:25:34;;;;;;;1999.90;999.90;;;;;;;16.62;72.72;101091.34;15775212;28;20486;-58
2021/09/09 01:33:06;;;;;;;1999.90;999.90;;;;;;;16.55;72.56;101072.25;15765344;28;20094;-60
2021/09/09 01:40:40;;;;;;;1999.90;999.90;;;;;;;16.49;72.62;101078.53;15752762;28;20044;-60
2021/09/09 01:48:13;;;;;;;1999.90;999.90;;;;;;;16.34;72.80;101078.16;15773868;28;20051;-58
2021/09/09 01:55:47;;;;;;;1999.90;999.90;;;;;;;16.34;72.81;101075.34;15801707;28;20048;-60
2021/09/09 02:03:19;;;;;;;1999.90;999.90;;;;;;;16.29;73.04;101083.28;15768425;28;20071;-59
2021/09/09 02:10:53;;;;;;;1999.90;999.90;;;;;;;16.28;73.09;101079.63;15779929;28;20072;-57
2021/09/09 02:18:25;;;;;;;1999.90;999.90;;;;;;;16.14;72.89;101079.25;15774643;28;20044;-60
2021/09/09 02:25:59;;;;;;;1999.90;999.90;;;;;;;16.02;72.81;101077.31;15794868;28;20046;-58
2021/09/09 02:33:31;;;;;;;1999.90;999.90;;;;;;;15.91;72.45;101070.59;15792832;28;20047;-59
2021/09/09 02:41:05;;;;;;;1999.90;999.90;;;;;;;15.76;73.03;101062.97;15803531;28;20553;-60
2021/09/09 02:48:37;;;;;;;1999.90;999.90;;;;;;;15.65;73.18;101056.22;15756884;28;20135;-59
2021/09/09 02:56:11;;;;;;;1999.90;999.90;;;;;;;15.63;73.02;101055.75;15771268;28;20392;-59
2021/09/09 03:03:43;;;;;;;1999.90;999.90;;;;;;;15.54;72.99;101053.06;15779233;28;20131;-60
2021/09/09 03:11:17;;;;;;;;;;;;;;;15.55;73.19;101046.28;15792763;28;20052;-60
2021/09/09 03:18:50;;;;;;;1999.90;999.90;;;;;;;15.35;73.59;101039.69;15771922;28;19966;-60
2021/09/09 03:26:24;;;;;;;1999.90;999.90;;;;;;;15.34;73.58;101034.41;15778081;28;20117;-61
2021/09/09 03:33:56;;;;;;;1999.90;999.90;;;;;;;15.28;73.79;101026.22;15773515;28;20048;-60
2021/09/09 03:41:30;;;;;;;1999.90;999.90;;;;;;;15.28;73.66;101022.59;15800057;28;20044;-61
2021/09/09 03:49:02;;;;;;;1999.90;999.90;;;;;;;15.33;73.82;101021.53;15775808;28;20041;-60
2021/09/09 03:56:36;;;;;;;1999.90;999.90;;;;;;;15.32;73.78;101015.09;15742283;28;20048;-59
2021/09/09 04:04:09;;;;;;;1999.90;999.90;;;;;;;15.42;73.57;101008.13;15767212;28;20047;-58
2021/09/09 04:11:42;;;;;;;1999.90;999.90;;;;;;;15.39;73.48;101011.66;15781619;28;20033;-58
2021/09/09 04:19:14;;;;;;;1999.90;999.90;;;;;;;15.25;73.49;101009.25;15761757;28;20107;-59
2021/09/09 04:26:49;;;;;;;1999.90;999.90;;;;;;;15.25;73.54;101007.25;15753193;28;20034;-58
2021/09/09 04:34:21;;;;;;;1999.90;999.90;;;;;;;15.14;73.82;100994.91;15745980;28;20434;-61
2021/09/09 04:42:01;;;;;;;1999.90;999.90;;;;;;;15.14;74.23;100994.91;15797789;28;20047;-58
2021/09/09 04:49:45;;;;;;;1999.90;999.90;;;;;;;15.12;73.30;100974.78;15745610;28;20075;-58
2021/09/09 04:57:19;;;;;;;1999.90;999.90;;;;;;;15.20;73.61;100987.81;15797342;28;20044;-60
2021/09/09 05:04:51;;;;;;;1999.90;999.90;;;;;;;15.23;74.06;100989.13;15760185;28;20067;-61
2021/09/09 05:12:25;;;;;;;1999.90;999.90;;;;;;;15.35;74.40;100975.00;15807017;28;20048;-61
2021/09/09 05:19:57;;;;;;;1999.90;999.90;;;;;;;15.53;73.70;100965.06;15789418;28;20052;-60
2021/09/09 05:27:31;;;;;;;1999.90;999.90;;;;;;;15.95;72.91;100967.41;15778581;28;20070;-60
2021/09/09 05:35:05;;;;;;;1999.90;999.90;;;;;;;16.25;71.92;100967.72;15795215;28;20067;-60
2021/09/09 05:42:38;;;;;;;;;;;;;;;16.57;69.95;100962.84;15797428;28;20060;-61
2021/09/09 05:50:11;;;;;;;;;;;;;;;16.98;70.62;100971.81;15729484;28;19921;-60
2021/09/09 05:57:45;;;;;;;1999.90;999.90;;;;;;;16.94;70.00;100976.56;15744245;28;19992;-60
2021/09/09 06:05:18;;;;;;;1999.90;999.90;;;;;;;17.10;69.19;100974.50;15744039;28;20513;-57
2021/09/09 06:12:52;;;;;;;1999.90;999.90;;;;;;;17.49;67.93;100963.97;15724873;28;20040;-62
2021/09/09 06:20:24;;;;;;;1999.90;999.90;;;;;;;17.80;66.47;100968.59;15730191;28;20534;-63
2021/09/09 06:28:00;;;;;;;1999.90;999.90;;;;;;;18.24;65.42;100967.34;15770372;28;20139;-61
2021/09/09 06:35:33;;;;;;;1999.90;999.90;;;;;;;18.47;63.36;100962.44;15805776;28;20036;-60
2021/09/09 06:43:07;;;;;;;1999.90;999.90;;;;;;;19.48;61.11;100963.34;15769060;28;20081;-59
2021/09/09 06:50:40;;;;;;;1999.90;999.90;;;;;;;19.48;60.11;100965.38;15801527;28;20389;-59
2021/09/09 06:58:13;;;;;;;1999.90;999.90;;;;;;;20.11;57.55;100962.41;15813590;28;20054;-60
2021/09/09 07:05:45;;;;;;;1999.90;999.90;;;;;;;20.16;56.15;100962.00;15784303;28;20130;-62
2021/09/09 07:13:20;;;;;;;1999.90;999.90;;;;;;;20.59;55.85;100961.53;15802174;28;20052;-60
2021/09/09 07:20:53;;;;;;;1999.90;999.90;;;;;;;21.76;52.41;100964.03;15805209;28;20040;-60
2021/09/09 07:28:27;;;;;;;;;;;;;;;22.41;52.23;100960.03;15822518;28;20040;-62
2021/09/09 07:35:59;;;;;;;1999.90;999.90;;;;;;;22.25;50.44;100971.81;15818563;28;19924;-61
2021/09/09 07:43:33;;;;;;;1999.90;999.90;;;;;;;22.18;50.69;100968.94;15818530;28;20472;-61
2021/09/09 07:51:05;;;;;;;1999.90;999.90;;;;;;;22.62;48.72;100962.00;15817791;28;20051;-61
2021/09/09 07:58:39;;;;;;;1999.90;999.90;;;;;;;22.34;49.20;100968.56;15801931;28;20048;-62
2021/09/09 08:06:11;;;;;;;1999.90;999.90;;;;;;;23.30;47.01;100969.09;15799942;28;20036;-60
2021/09/09 08:13:45;;;;;;;1999.90;999.90;;;;;;;24.07;46.44;100971.91;15782392;28;20511;-60
2021/09/09 08:21:17;;;;;;;1999.90;999.90;;;;;;;24.51;45.74;100969.50;15800570;28;20090;-61
2021/09/09 08:28:51;;;;;;;1999.90;999.90;;;;;;;24.89;45.19;100967.44;15800151;28;20052;-62
2021/09/09 08:36:25;;;;;;;1999.90;999.90;;;;;;;24.96;44.23;100970.22;15806060;28;20102;-60
2021/09/09 08:43:58;;;;;;;1999.90;999.90;;;;;;;25.67;43.59;100969.31;15794343;28;20047;-60
2021/09/09 08:51:31;;;;;;;1999.90;999.90;;;;;;;25.73;42.85;100972.50;15811424;28;20541;-58
2021/09/09 08:59:04;;;;;;;1999.90;999.90;;;;;;;26.03;42.46;100974.47;15810326;28;20048;-60
2021/09/09 09:06:38;;;;;;;1999.90;999.90;;;;;;;26.44;42.16;100971.34;15817416;28;20047;-60
2021/09/09 09:14:13;;;;;;;1999.90;999.90;;;;;;;26.07;41.36;100970.34;15822800;28;20122;-60
2021/09/09 09:21:48;;;;;;;1999.90;999.90;;;;;;;27.12;41.66;100970.06;15824764;28;20082;-61
2021/09/09 09:29:25;;;;;;;1999.90;999.90;;;;;;;27.61;39.39;100954.63;15812313;28;20459;-60
2021/09/09 09:36:57;;;;;;;1999.90;999.90;;;;;;;27.02;38.50;100960.47;15797361;28;20032;-60
2021/09/09 09:44:33;;;;;;;1999.90;999.90;;;;;;;27.95;37.88;100950.59;15818424;28;20060;-60
2021/09/09 09:52:06;;;;;;;1999.90;999.90;;;;;;;28.35;38.33;100953.31;15830817;28;20048;-58
2021/09/09 09:59:40;;;;;;;1999.90;999.90;;;;;;;29.21;36.90;100958.28;15806754;28;20136;-61
2021/09/09 10:07:14;;;;;;;1999.90;999.90;;;;;;;29.11;36.45;100950.78;15841585;28;20076;-61
2021/09/09 10:14:49;;;;;;;1999.90;999.90;;;;;;;29.35;38.79;100942.66;15830433;28;20075;-59
2021/09/09 10:22:23;;;;;;;1999.90;999.90;;;;;;;31.10;34.98;100951.94;15801093;28;20489;-62
2021/09/09 10:30:00;;;;;;;1999.90;999.90;;;;;;;30.36;33.99;100938.19;15795627;28;20048;-59
2021/09/09 10:37:33;;;;;;;1999.90;999.90;;;;;;;31.22;34.02;100933.00;15803962;28;20119;-59
2021/09/09 10:45:32;;;;;;;1999.90;999.90;;;;;;;30.59;36.12;100934.88;15789090;28;20584;-61
2021/09/09 10:53:05;;;;;;;1999.90;999.90;;;;;;;30.95;34.06;100934.41;15834790;28;20071;-60
2021/09/09 11:00:58;;;;;;;1999.90;999.90;;;;;;;31.72;33.62;100925.22;15811956;28;20203;-61
2021/09/09 11:08:31;;;;;;;1999.90;999.90;;;;;;;30.79;34.25;100925.13;15828334;28;20054;-60
2021/09/09 11:16:20;;;;;;;1999.90;999.90;;;;;;;31.99;33.54;100918.75;15807201;28;20174;-61
2021/09/09 11:23:58;;;;;;;1999.90;999.90;;;;;;;32.54;32.40;100908.13;15810728;28;20051;-59
2021/09/09 11:31:34;;;;;;;1999.90;999.90;;;;;;;32.95;31.36;100908.78;15741039;28;20071;-60
2021/09/09 11:39:10;;;;;;;1999.90;999.90;;;;;;;33.68;30.25;100897.00;15738410;28;20052;-60
2021/09/09 11:46:49;;;;;;;1999.90;999.90;;;;;;;33.70;30.56;100888.63;15740175;28;20417;-60
2021/09/09 11:54:25;;;;;;;1999.90;999.90;;;;;;;32.98;31.90;100891.25;15723078;28;20060;-61
2021/09/09 12:02:05;;;;;;;1999.90;999.90;;;;;;;34.70;29.82;100881.38;15739166;28;20091;-59
2021/09/09 12:09:54;;;;;;;1999.90;999.90;;;;;;;34.59;29.05;100877.44;15737664;28;20106;-59
2021/09/09 12:17:29;;;;;;;1999.90;999.90;;;;;;;35.07;29.00;100874.44;15721498;28;20648;-60
2021/09/09 12:25:14;;;;;;;1999.90;999.90;;;;;;;36.45;28.06;100861.75;15799072;28;20091;-58
2021/09/09 12:32:48;;;;;;;1999.90;999.90;;;;;;;36.75;26.59;100854.44;15799287;28;20036;-60
2021/09/09 12:40:38;;;;;;;1999.90;999.90;;;;;;;38.35;24.81;100846.66;15825147;28;20093;-57
2021/09/09 12:48:12;;;;;;;1999.90;999.90;;;;;;;39.69;22.89;100845.22;15816195;28;20122;-59
2021/09/09 12:55:44;;;;;;;1999.90;999.90;;;;;;;39.74;22.51;100836.44;15797940;28;20055;-61
2021/09/09 13:03:22;;;;;;;1999.90;999.90;;;;;;;39.73;22.57;100825.31;15781946;28;20141;-59
2021/09/09 13:10:55;;;;;;;1999.90;999.90;;;;;;;42.80;20.57;100833.56;15754754;28;20037;-59
2021/09/09 13:18:29;;;;;;;1999.90;999.90;;;;;;;35.98;25.52;100811.53;15739066;28;20434;-60
2021/09/09 13:26:02;;;;;;;1999.90;999.90;;;;;;;37.67;24.90;100808.94;15773176;28;20087;-59
2021/09/09 13:33:36;;;;;;;1999.90;999.90;;;;;;;35.31;26.55;100796.78;15814100;28;20075;-60
2021/09/09 13:41:09;;;;;;;1999.90;999.90;;;;;;;36.12;26.35;100788.19;15812875;28;20738;-59
2021/09/09 13:48:42;;;;;;;1999.90;999.90;;;;;;;33.44;29.12;100778.34;15809944;28;20052;-59
2021/09/09 13:56:17;;;;;;;1999.90;999.90;;;;;;;31.50;31.59;100760.94;15809396;28;20529;-60
2021/09/09 14:03:50;;;;;;;1999.90;999.90;;;;;;;30.78;32.30;100757.28;15809139;28;20110;-59
2021/09/09 14:11:23;;;;;;;1999.90;999.90;;;;;;;31.34;32.63;100750.47;15790475;28;20302;-60
2021/09/09 14:18:56;;;;;;;1999.90;999.90;;;;;;;30.44;32.66;100755.31;15808770;28;20097;-61
2021/09/09 14:26:29;;;;;;;1999.90;999.90;;;;;;;30.38;31.95;100740.69;15789678;28;20044;-59
2021/09/09 14:34:03;;;;;;;1999.90;999.90;;;;;;;30.23;32.45;100741.72;15806804;28;20044;-61
2021/09/09 14:41:36;;;;;;;1999.90;999.90;;;;;;;30.51;32.25;100742.69;15788311;28;20036;-60
2021/09/09 14:49:10;;;;;;;1999.90;999.90;;;;;;;30.12;32.53;100740.06;15807268;28;20131;-60
2021/09/09 14:56:42;;;;;;;1999.90;999.90;;;;;;;30.10;32.58;100730.25;15805541;28;20040;-60
2021/09/09 15:04:16;;;;;;;1999.90;999.90;;;;;;;30.19;32.32;100730.31;15793665;28;20048;-60
2021/09/09 15:11:48;;;;;;;1999.90;999.90;;;;;;;29.95;32.75;100727.09;15803637;28;20127;-61
2021/09/09 15:19:22;;;;;;;1999.90;999.90;;;;;;;29.67;32.95;100711.66;15779939;28;20433;-59
2021/09/09 15:26:55;;;;;;;1999.90;999.90;;;;;;;29.74;32.60;100714.28;15794417;28;20071;-59
2021/09/09 15:34:30;;;;;;;1999.90;999.90;;;;;;;29.83;33.91;100717.25;15785955;28;20038;-59
2021/09/09 15:42:02;;;;;;;1999.90;999.90;;;;;;;29.59;33.57;100707.41;15786933;28;20615;-60
2021/09/09 15:49:36;;;;;;;1999.90;999.90;;;;;;;29.56;34.26;100711.22;15792414;28;20106;-58
2021/09/09 15:57:10;;;;;;;1999.90;999.90;;;;;;;29.24;34.43;100716.00;15755610;28;20518;-59
2021/09/09 16:04:44;;;;;;;1999.90;999.90;;;;;;;29.32;34.87;100705.06;15779264;28;20044;-60
2021/09/09 16:12:17;;;;;;;1999.90;999.90;;;;;;;29.26;34.07;100710.56;15763621;28;20127;-62
2021/09/09 16:19:51;;;;;;;1999.90;999.90;;;;;;;29.09;34.73;100706.25;15735689;28;20036;-60
2021/09/09 16:27:23;;;;;;;1999.90;999.90;;;;;;;29.00;34.74;100700.41;15768143;28;20048;-61
2021/09/09 16:34:57;;;;;;;1999.90;999.90;;;;;;;28.98;35.50;100697.19;15762717;28;20052;-59
2021/09/09 16:42:30;;;;;;;1999.90;999.90;;;;;;;28.78;36.05;100697.41;15759383;28;20044;-60
2021/09/09 16:50:04;;;;;;;1999.90;999.90;;;;;;;28.65;38.45;100700.25;15744967;28;20044;-59
2021/09/09 16:57:40;;;;;;;1999.90;999.90;;;;;;;28.11;40.24;100692.44;15747517;28;20064;-61
2021/09/09 17:05:16;;;;;;;1999.90;999.90;;;;;;;27.76;41.22;100688.53;15793898;28;20343;-61
2021/09/09 17:12:48;;;;;;;1999.90;999.90;;;;;;;27.59;41.99;100684.88;15788749;28;20051;-61
2021/09/09 17:20:22;;;;;;;1999.90;999.90;;;;;;;27.13;42.48;100691.84;15802738;28;20048;-57
2021/09/09 17:27:55;;;;;;;1999.90;999.90;;;;;;;26.67;42.89;100698.63;15786955;28;20527;-59
2021/09/09 17:35:29;;;;;;;1999.90;999.90;;;;;;;26.22;43.57;100687.75;15790817;28;20040;-60
2021/09/09 17:43:01;;;;;;;1999.90;999.90;;;;;;;26.08;43.72;100700.31;15771028;28;20067;-59
2021/09/09 17:50:36;;;;;;;;;;;;;;;25.65;44.70;100706.06;15786555;28;20036;-59
2021/09/09 17:58:08;;;;;;;1999.90;999.90;;;;;;;25.43;47.49;100708.50;15798016;28;19920;-58
2021/09/09 18:05:42;;;;;;;1999.90;999.90;;;;;;;25.54;47.84;100717.69;15805596;28;20091;-59
2021/09/09 18:13:15;;;;;;;1999.90;999.90;;;;;;;25.15;49.98;100721.22;15813711;28;20086;-59
2021/09/09 18:20:49;;;;;;;1999.90;999.90;;;;;;;24.69;51.66;100711.28;15803372;28;20414;-58
2021/09/09 18:28:22;;;;;;;1999.90;999.90;;;;;;;24.33;53.04;100710.97;15808626;28;20472;-59
2021/09/09 18:35:56;;;;;;;;;;;;;;;24.17;54.68;100725.00;15783085;28;20044;-60
2021/09/09 18:43:29;;;;;;;1999.90;999.90;;;;;;;23.89;54.19;100729.00;15729700;28;20462;-59
2021/09/09 18:51:02;;;;;;;1999.90;999.90;;;;;;;23.77;54.78;100721.81;15782119;28;20135;-60
2021/09/09 18:58:35;;;;;;;1999.90;999.90;;;;;;;23.71;54.57;100719.84;15768451;28;20039;-60
2021/09/09 19:06:09;;;;;;;1999.90;999.90;;;;;;;23.59;54.85;100732.56;15773263;28;20060;-60
2021/09/09 19:13:43;;;;;;;1999.90;999.90;;;;;;;23.40;55.62;100733.13;15784375;28;20075;-60
2021/09/09 19:21:17;;;;;;;1999.90;999.90;;;;;;;23.59;53.29;100732.56;15772614;28;20058;-60
2021/09/09 19:28:50;;;;;;;1999.90;999.90;;;;;;;23.39;53.16;100728.66;15784965;28;20106;-60
2021/09/09 19:36:23;;;;;;;1999.90;999.90;;;;;;;23.32;54.32;100733.19;15789007;28;20048;-60
2021/09/09 19:43:56;;;;;;;1999.90;999.90;;;;;;;23.02;53.19;100733.03;15754578;28;20460;-60
2021/09/09 19:51:29;;;;;;;1999.90;999.90;;;;;;;22.84;52.92;100726.69;15731035;28;20063;-60
2021/09/09 19:59:03;;;;;;;1999.90;999.90;;;;;;;23.01;52.78;100734.25;15790732;28;20083;-58
2021/09/09 20:06:37;;;;;;;1999.90;999.90;;;;;;;22.92;51.99;100725.38;15769521;28;20092;-60
2021/09/09 20:14:09;;;;;;;1999.90;999.90;;;;;;;22.83;54.34;100728.69;15741997;28;20048;-60
2021/09/09 20:21:43;;;;;;;;;;;;;;;22.69;56.10;100734.44;15798354;28;20035;-62
2021/09/09 20:29:16;;;;;;;1999.90;999.90;;;;;;;22.32;56.98;100730.19;15830013;28;19974;-60
2021/09/09 20:36:49;;;;;;;1999.90;999.90;;;;;;;22.18;57.93;100721.72;15780131;28;20051;-60
2021/09/09 20:44:22;;;;;;;1999.90;999.90;;;;;;;22.08;58.71;100728.25;15793356;28;20040;-60
2021/09/09 20:51:56;;;;;;;1999.90;999.90;;;;;;;22.19;59.56;100726.97;15785862;28;20095;-60
2021/09/09 20:59:29;;;;;;;1999.90;999.90;;;;;;;22.12;59.21;100720.53;15778134;28;20139;-59
2021/09/09 21:07:03;;;;;;;1999.90;999.90;;;;;;;22.23;57.83;100726.97;15778093;28;20052;-59
2021/09/09 21:14:35;;;;;;;1999.90;999.90;;;;;;;22.32;58.54;100729.38;15751293;28;20076;-60
2021/09/09 21:22:09;;;;;;;1999.90;999.90;;;;;;;22.16;58.83;100727.81;15769979;28;20076;-60
2021/09/09 21:29:44;;;;;;;1999.90;999.90;;;;;;;21.94;56.91;100723.41;15787305;28;20075;-60
2021/09/09 21:37:18;;;;;;;1999.90;999.90;;;;;;;22.01;59.13;100722.56;15776776;28;20044;-58
2021/09/09 21:44:50;;;;;;;1999.90;999.90;;;;;;;21.81;59.68;100720.19;15787867;28;20532;-58
2021/09/09 21:52:24;;;;;;;1999.90;999.90;;;;;;;21.65;60.26;100725.50;15787859;28;20474;-59
2021/09/09 21:59:56;;;;;;;1999.90;999.90;;;;;;;21.39;60.87;100726.75;15776522;28;20052;-59
2021/09/09 22:07:35;;;;;;;1999.90;999.90;;;;;;;21.21;61.91;100726.72;15787786;28;20111;-58
2021/09/09 22:15:27;;;;;;;1999.90;999.90;;;;;;;21.06;62.53;100725.13;15783251;28;20406;-59
2021/09/09 22:23:01;;;;;;;1999.90;999.90;;;;;;;21.01;62.94;100731.19;15747335;28;20072;-58
2021/09/09 22:30:39;;;;;;;1999.90;999.90;;;;;;;20.92;62.66;100727.91;15763380;28;20140;-60
2021/09/09 22:38:14;;;;;;;1999.90;999.90;;;;;;;21.07;62.47;100723.09;15787295;28;20076;-60
2021/09/09 22:45:46;;;;;;;1999.90;999.90;;;;;;;20.64;60.84;100731.53;15795960;28;20074;-58
2021/09/09 22:53:28;;;;;;;1999.90;999.90;;;;;;;21.25;59.35;100721.84;15777539;28;20064;-57
2021/09/09 23:01:02;;;;;;;1999.90;999.90;;;;;;;21.13;61.65;100730.78;15767623;28;20044;-59
2021/09/09 23:09:19;;;;;;;1999.90;999.90;;;;;;;20.91;62.41;100724.28;15714266;28;20135;-60
2021/09/09 23:16:52;;;;;;;1999.90;999.90;;;;;;;20.59;62.04;100718.56;15776378;28;20047;-60
2021/09/09 23:25:05;;;;;;;;;;;;;;;;;;;;;
2021/09/09 23:32:54;;;;;;;1999.90;999.90;;;;;;;20.77;62.44;100727.09;15799967;28;20481;-59
2021/09/09 23:41:06;;;;;;;;;;;;;;;;;;;;;
2021/09/09 23:48:48;;;;;;;1999.90;999.90;;;;;;;20.67;63.27;100728.69;15753436;28;20050;-59
2021/09/09 23:56:21;;;;;;;1999.90;999.90;;;;;;;20.50;63.86;100725.81;15779078;28;20044;-60
